createdAt,value
2023-01-29T00:01:33.735Z,88.60
2023-01-29T00:04:00.186Z,88.83
2023-01-29T00:06:26.990Z,88.14
2023-01-29T00:08:53.453Z,88.50
2023-01-29T00:11:20.483Z,88.35
2023-01-29T00:13:47.427Z,87.80
2023-01-29T00:16:14.011Z,87.64
2023-01-29T00:18:41.082Z,87.49
2023-01-29T00:21:16.090Z,87.26
2023-01-29T00:23:42.990Z,86.98
2023-01-29T00:26:09.902Z,86.59
2023-01-29T00:28:36.619Z,86.75
2023-01-29T00:31:33.236Z,86.64
2023-01-29T00:34:00.248Z,86.85
2023-01-29T00:36:27.510Z,86.71
2023-01-29T00:39:04.961Z,87.18
2023-01-29T00:41:51.719Z,88.00
2023-01-29T00:44:37.164Z,87.08
2023-01-29T00:47:25.906Z,87.91
2023-01-29T00:49:52.594Z,87.60
2023-01-29T00:52:25.149Z,88.50
2023-01-29T00:54:53.436Z,88.86
2023-01-29T00:57:19.933Z,88.68
2023-01-29T00:59:46.448Z,89.12
2023-01-29T01:02:31.778Z,90.36
2023-01-29T01:04:58.224Z,90.82
2023-01-29T01:07:24.674Z,91.45
2023-01-29T01:10:09.731Z,91.76
2023-01-29T01:12:39.412Z,91.83
2023-01-29T01:15:09.663Z,92.05
2023-01-29T01:17:39.583Z,93.27
2023-01-29T01:20:09.687Z,93.66
2023-01-29T01:22:38.468Z,94.68
2023-01-29T01:25:07.984Z,94.31
2023-01-29T01:27:34.846Z,94.57
2023-01-29T01:30:01.300Z,94.49
2023-01-29T01:32:27.731Z,94.52
2023-01-29T01:34:54.214Z,94.52
2023-01-29T01:37:20.998Z,93.98
2023-01-29T01:39:48.990Z,93.92
2023-01-29T01:42:15.485Z,94.42
2023-01-29T01:45:04.375Z,93.53
2023-01-29T01:47:43.263Z,93.92
2023-01-29T01:50:45.577Z,95.08
2023-01-29T01:53:20.640Z,94.89
2023-01-29T01:55:59.977Z,95.63
2023-01-29T01:58:30.619Z,96.30
2023-01-29T02:00:57.622Z,96.79
2023-01-29T02:03:46.437Z,95.54
2023-01-29T02:06:31.904Z,95.61
2023-01-29T02:09:29.035Z,95.33
2023-01-29T02:11:55.967Z,95.13
2023-01-29T02:14:22.718Z,94.37
2023-01-29T02:16:49.345Z,94.58
2023-01-29T02:19:42.032Z,95.47
2023-01-29T02:22:25.850Z,94.55
2023-01-29T02:25:13.247Z,94.40
2023-01-29T02:27:48.810Z,94.94
2023-01-29T02:30:30.473Z,95.01
2023-01-29T02:33:07.544Z,95.02
2023-01-29T02:35:49.086Z,94.90
2023-01-29T02:38:38.843Z,95.69
2023-01-29T02:41:14.285Z,95.68
2023-01-29T02:43:51.757Z,95.18
2023-01-29T02:46:24.608Z,94.47
2023-01-29T02:49:31.030Z,95.93
2023-01-29T02:52:07.525Z,94.55
2023-01-29T02:54:43.116Z,95.02
2023-01-29T02:57:24.062Z,95.47
2023-01-29T03:00:07.029Z,94.88
2023-01-29T03:02:43.505Z,94.70
2023-01-29T03:05:17.556Z,94.59
2023-01-29T03:07:52.066Z,95.22
2023-01-29T03:10:25.080Z,95.62
2023-01-29T03:12:59.675Z,96.40
2023-01-29T03:15:38.987Z,96.55
2023-01-29T03:18:13.967Z,96.42
2023-01-29T03:20:48.228Z,97.14
2023-01-29T03:23:53.692Z,96.52
2023-01-29T03:26:41.221Z,96.87
2023-01-29T03:29:28.095Z,96.64
2023-01-29T03:32:09.349Z,95.05
2023-01-29T03:34:44.972Z,95.08
2023-01-29T03:37:20.154Z,95.90
2023-01-29T03:39:46.678Z,94.75
2023-01-29T03:42:19.147Z,95.40
2023-01-29T03:45:08.447Z,95.08
2023-01-29T03:48:04.160Z,95.09
2023-01-29T03:51:06.248Z,96.28
2023-01-29T03:53:48.423Z,95.16
2023-01-29T03:56:28.312Z,95.60
2023-01-29T03:59:00.586Z,94.68
2023-01-29T04:01:48.556Z,95.17
2023-01-29T04:04:30.058Z,95.38
2023-01-29T04:07:04.120Z,94.57
2023-01-29T04:09:36.220Z,94.06
2023-01-29T04:12:09.043Z,93.31
2023-01-29T04:14:37.341Z,93.91
2023-01-29T04:17:12.602Z,95.14
2023-01-29T04:19:39.395Z,94.14
2023-01-29T04:22:32.528Z,94.13
2023-01-29T04:25:02.933Z,94.85
2023-01-29T04:27:29.405Z,94.78
2023-01-29T04:30:08.794Z,94.81
2023-01-29T04:32:51.392Z,95.31
2023-01-29T04:36:06.025Z,94.46
2023-01-29T04:38:41.369Z,95.53
2023-01-29T04:41:20.193Z,95.45
2023-01-29T04:44:18.777Z,95.23
2023-01-29T04:47:11.873Z,94.67
2023-01-29T04:50:13.266Z,95.77
2023-01-29T04:52:57.533Z,95.19
2023-01-29T04:55:43.268Z,94.35
2023-01-29T04:58:25.671Z,94.60
2023-01-29T05:00:54.258Z,95.19
2023-01-29T05:03:24.731Z,95.08
2023-01-29T05:05:51.635Z,95.68
2023-01-29T05:08:21.866Z,95.84
2023-01-29T05:10:53.782Z,95.28
2023-01-29T05:13:24.327Z,96.40
2023-01-29T05:16:02.858Z,95.81
2023-01-29T05:18:30.643Z,95.93
2023-01-29T05:20:59.931Z,95.81
2023-01-29T05:23:26.591Z,96.63
2023-01-29T05:25:53.268Z,96.65
2023-01-29T05:28:23.357Z,96.19
2023-01-29T05:30:55.983Z,95.56
2023-01-29T05:33:24.137Z,95.87
2023-01-29T05:35:55.245Z,95.23
2023-01-29T05:38:22.983Z,96.09
2023-01-29T05:40:51.545Z,97.05
2023-01-29T05:43:25.355Z,96.98
2023-01-29T05:45:59.987Z,97.14
2023-01-29T05:48:28.896Z,97.52
2023-01-29T05:51:03.168Z,96.47
2023-01-29T05:53:30.570Z,96.31
2023-01-29T05:56:00.002Z,95.89
2023-01-29T05:58:26.481Z,96.17
2023-01-29T06:00:55.999Z,96.14
2023-01-29T06:03:25.321Z,96.20
2023-01-29T06:05:55.756Z,95.65
2023-01-29T06:08:22.781Z,94.75
2023-01-29T06:10:49.212Z,94.41
2023-01-29T06:13:15.647Z,94.03
2023-01-29T06:15:42.125Z,94.02
2023-01-29T06:18:08.564Z,94.71
2023-01-29T06:20:35.067Z,94.84
2023-01-29T06:23:01.491Z,95.32
2023-01-29T06:25:28.077Z,95.59
2023-01-29T06:27:54.595Z,95.01
2023-01-29T06:30:24.032Z,93.59
2023-01-29T06:32:52.625Z,94.17
2023-01-29T06:35:19.133Z,94.10
2023-01-29T06:37:45.787Z,94.13
2023-01-29T06:40:12.717Z,94.08
2023-01-29T06:42:39.153Z,94.01
2023-01-29T06:45:06.050Z,94.19
2023-01-29T06:47:32.521Z,94.07
2023-01-29T06:49:59.092Z,93.17
2023-01-29T06:52:28.920Z,92.03
2023-01-29T06:54:56.571Z,92.65
2023-01-29T06:57:23.614Z,92.07
2023-01-29T06:59:50.140Z,92.27
2023-01-29T07:02:17.625Z,93.36
2023-01-29T07:04:44.183Z,92.08
2023-01-29T07:07:13.396Z,92.18
2023-01-29T07:09:40.981Z,91.60
2023-01-29T07:12:08.417Z,91.61
2023-01-29T07:14:34.892Z,91.17
2023-01-29T07:17:01.460Z,91.10
2023-01-29T07:19:28.069Z,91.35
2023-01-29T07:21:54.592Z,90.65
2023-01-29T07:24:24.915Z,91.12
2023-01-29T07:26:54.496Z,90.03
2023-01-29T07:29:21.519Z,90.46
2023-01-29T07:31:48.136Z,91.01
2023-01-29T07:34:14.871Z,91.18
2023-01-29T07:36:41.403Z,90.91
2023-01-29T07:39:08.136Z,90.81
2023-01-29T07:41:34.805Z,91.49
2023-01-29T07:44:01.740Z,92.54
2023-01-29T07:46:29.112Z,92.55
2023-01-29T07:48:55.583Z,92.04
2023-01-29T07:51:25.084Z,92.23
2023-01-29T07:53:54.529Z,92.49
2023-01-29T07:56:24.058Z,92.82
2023-01-29T07:58:54.415Z,92.20
2023-01-29T08:01:23.789Z,92.42
2023-01-29T08:03:51.539Z,92.37
2023-01-29T08:06:18.116Z,91.72
2023-01-29T08:08:44.545Z,91.06
2023-01-29T08:11:10.992Z,91.51
2023-01-29T08:13:37.699Z,91.04
2023-01-29T08:16:04.702Z,90.84
2023-01-29T08:18:34.097Z,89.84
2023-01-29T08:21:03.712Z,89.59
2023-01-29T08:23:30.591Z,89.78
2023-01-29T08:25:57.569Z,90.01
2023-01-29T08:28:24.541Z,90.23
2023-01-29T08:30:51.988Z,91.00
2023-01-29T08:33:23.768Z,90.38
2023-01-29T08:35:53.638Z,90.00
2023-01-29T08:38:21.123Z,89.92
2023-01-29T08:40:48.085Z,89.66
2023-01-29T08:43:14.661Z,88.39
2023-01-29T08:45:43.983Z,88.34
2023-01-29T08:48:11.208Z,88.60
2023-01-29T08:50:38.396Z,88.72
2023-01-29T08:53:08.146Z,88.68
2023-01-29T08:55:39.973Z,88.11
2023-01-29T08:58:07.846Z,87.86
2023-01-29T09:00:35.668Z,87.61
2023-01-29T09:03:08.459Z,87.70
2023-01-29T09:05:37.226Z,87.11
2023-01-29T09:08:04.536Z,86.72
2023-01-29T09:10:31.617Z,87.46
2023-01-29T09:12:58.191Z,87.82
2023-01-29T09:15:25.192Z,86.94
2023-01-29T09:17:52.630Z,88.14
2023-01-29T09:20:22.640Z,89.07
2023-01-29T09:22:53.827Z,89.17
2023-01-29T09:25:23.598Z,89.06
2023-01-29T09:27:52.296Z,88.90
2023-01-29T09:30:19.323Z,89.18
2023-01-29T09:32:54.401Z,88.69
2023-01-29T09:35:24.601Z,88.77
2023-01-29T09:37:56.850Z,88.85
2023-01-29T09:40:29.440Z,88.43
2023-01-29T09:43:04.760Z,87.76
2023-01-29T09:45:31.760Z,88.18
2023-01-29T09:48:05.769Z,88.21
2023-01-29T09:50:40.939Z,87.65
2023-01-29T09:53:21.828Z,87.11
2023-01-29T09:56:14.656Z,87.26
2023-01-29T09:58:43.410Z,87.45
2023-01-29T10:01:25.369Z,87.83
2023-01-29T10:04:28.934Z,87.36
2023-01-29T10:07:18.655Z,87.32
2023-01-29T10:10:03.083Z,86.70
2023-01-29T10:13:00.555Z,85.70
2023-01-29T10:15:46.435Z,85.22
2023-01-29T10:18:41.275Z,85.15
2023-01-29T10:21:22.123Z,84.66
2023-01-29T10:24:03.929Z,85.39
2023-01-29T10:26:33.308Z,84.47
2023-01-29T10:29:05.585Z,84.65
2023-01-29T10:31:38.604Z,84.01
2023-01-29T10:34:17.997Z,83.29
2023-01-29T10:36:47.345Z,81.79
2023-01-29T10:39:19.426Z,81.92
2023-01-29T10:42:14.431Z,80.83
2023-01-29T10:45:02.948Z,81.33
2023-01-29T10:47:52.850Z,80.68
2023-01-29T10:50:40.381Z,80.00
2023-01-29T10:53:48.323Z,78.37
2023-01-29T10:56:35.204Z,77.23
2023-01-29T10:59:07.046Z,75.46
2023-01-29T11:01:33.554Z,75.66
2023-01-29T11:04:06.469Z,75.57
2023-01-29T11:06:35.504Z,76.21
2023-01-29T11:12:11.768Z,73.65
2023-01-29T11:14:53.277Z,73.29
2023-01-29T11:17:23.690Z,74.12
2023-01-29T11:19:52.806Z,72.90
2023-01-29T11:22:30.283Z,71.87
2023-01-29T11:25:19.464Z,71.41
2023-01-29T11:27:49.250Z,70.79
2023-01-29T11:30:38.651Z,71.06
2023-01-29T11:33:05.125Z,70.91
2023-01-29T11:35:33.293Z,71.18
2023-01-29T11:38:25.432Z,71.30
2023-01-29T11:41:18.602Z,70.21
2023-01-29T11:43:45.422Z,70.33
2023-01-29T11:46:15.536Z,70.49
2023-01-29T11:48:48.023Z,68.92
2023-01-29T11:51:34.158Z,68.77
2023-01-29T11:54:03.449Z,66.60
2023-01-29T11:56:39.504Z,67.47
2023-01-29T11:59:08.374Z,68.00
2023-01-29T12:01:38.613Z,67.34
2023-01-29T12:04:23.509Z,66.79
2023-01-29T12:06:53.473Z,67.64
2023-01-29T12:09:23.929Z,68.29
2023-01-29T12:11:52.043Z,67.45
2023-01-29T12:14:30.038Z,67.51
2023-01-29T12:17:35.319Z,64.37
2023-01-29T12:20:24.676Z,64.77
2023-01-29T12:23:12.134Z,65.19
2023-01-29T12:25:45.053Z,66.12
2023-01-29T12:28:22.915Z,65.09
2023-01-29T12:31:07.486Z,65.75
2023-01-29T12:33:46.909Z,64.61
2023-01-29T12:36:27.969Z,63.98
2023-01-29T12:38:56.027Z,62.84
2023-01-29T12:41:33.997Z,63.04
2023-01-29T12:44:11.963Z,62.76
2023-01-29T12:46:43.685Z,62.56
2023-01-29T12:49:16.750Z,62.64
2023-01-29T12:52:05.027Z,62.75
2023-01-29T12:54:38.304Z,62.96
2023-01-29T12:57:10.452Z,63.86
2023-01-29T12:59:45.987Z,63.31
2023-01-29T13:02:24.342Z,63.33
2023-01-29T13:05:05.059Z,62.79
2023-01-29T13:07:38.316Z,62.23
2023-01-29T13:10:13.793Z,60.34
2023-01-29T13:12:52.779Z,60.37
2023-01-29T13:15:38.349Z,60.26
2023-01-29T13:18:23.566Z,59.80
2023-01-29T13:20:54.604Z,60.84
2023-01-29T13:23:39.724Z,59.28
2023-01-29T13:26:06.553Z,59.75
2023-01-29T13:28:33.514Z,61.70
2023-01-29T13:31:13.580Z,62.26
2023-01-29T13:33:43.532Z,61.94
2023-01-29T13:36:19.583Z,62.76
2023-01-29T13:38:46.426Z,61.70
2023-01-29T13:41:14.785Z,61.31
2023-01-29T13:43:43.522Z,61.29
2023-01-29T13:46:15.084Z,62.01
2023-01-29T13:48:47.410Z,62.64
2023-01-29T13:51:22.528Z,64.10
2023-01-29T13:54:05.104Z,63.18
2023-01-29T13:56:34.529Z,63.47
2023-01-29T13:59:03.308Z,62.84
2023-01-29T14:01:48.176Z,63.42
2023-01-29T14:04:30.544Z,63.15
2023-01-29T14:06:58.643Z,63.40
2023-01-29T14:09:33.371Z,62.06
2023-01-29T14:12:00.424Z,63.25
2023-01-29T14:14:48.442Z,62.83
2023-01-29T14:17:17.252Z,60.09
2023-01-29T14:19:54.108Z,61.43
2023-01-29T14:22:24.058Z,62.64
2023-01-29T14:24:55.811Z,62.99
2023-01-29T14:27:28.013Z,63.37
2023-01-29T14:30:12.653Z,63.94
2023-01-29T14:32:40.524Z,65.32
2023-01-29T14:35:19.155Z,65.18
2023-01-29T14:37:53.599Z,65.01
2023-01-29T14:40:25.267Z,64.09
2023-01-29T14:43:07.431Z,68.66
2023-01-29T14:45:36.709Z,67.33
2023-01-29T14:48:41.656Z,64.81
2023-01-29T14:51:16.693Z,63.41
2023-01-29T14:53:51.814Z,63.82
2023-01-29T14:56:46.014Z,64.13
2023-01-29T14:59:18.942Z,64.34
2023-01-29T15:01:53.398Z,63.30
2023-01-29T15:04:44.543Z,63.93
2023-01-29T15:07:11.430Z,63.79
2023-01-29T15:09:45.681Z,64.47
2023-01-29T15:12:33.311Z,63.29
2023-01-29T15:15:03.297Z,62.59
2023-01-29T15:17:52.242Z,62.73
2023-01-29T15:20:45.151Z,63.04
2023-01-29T15:23:31.769Z,64.41
2023-01-29T15:26:12.376Z,64.63
2023-01-29T15:28:39.780Z,64.69
2023-01-29T15:31:13.262Z,63.93
2023-01-29T15:33:44.709Z,64.49
2023-01-29T15:36:20.806Z,64.30
2023-01-29T15:38:53.147Z,64.67
2023-01-29T15:41:21.947Z,65.36
2023-01-29T15:43:57.793Z,65.68
2023-01-29T15:46:34.649Z,65.74
2023-01-29T15:49:07.282Z,66.08
2023-01-29T15:51:34.118Z,65.83
2023-01-29T15:54:03.584Z,65.65
2023-01-29T15:56:43.561Z,65.44
2023-01-29T15:59:18.265Z,65.76
2023-01-29T16:01:45.333Z,65.79
2023-01-29T16:04:18.794Z,66.58
2023-01-29T16:06:47.335Z,66.08
2023-01-29T16:09:19.757Z,65.68
2023-01-29T16:11:48.309Z,65.44
2023-01-29T16:14:17.555Z,65.93
2023-01-29T16:16:45.243Z,66.11
2023-01-29T16:19:29.433Z,66.51
2023-01-29T16:22:01.903Z,66.04
2023-01-29T16:24:34.793Z,66.17
2023-01-29T16:27:12.641Z,65.76
2023-01-29T16:29:39.421Z,66.04
2023-01-29T16:32:07.054Z,68.10
2023-01-29T16:34:45.410Z,68.17
2023-01-29T16:37:28.736Z,67.84
2023-01-29T16:39:59.102Z,67.42
2023-01-29T16:42:30.590Z,68.08
2023-01-29T16:45:27.347Z,68.35
2023-01-29T16:48:02.387Z,68.66
2023-01-29T16:50:46.220Z,68.36
2023-01-29T16:53:23.190Z,69.04
2023-01-29T16:55:51.313Z,68.22
2023-01-29T16:58:27.047Z,68.79
2023-01-29T17:00:59.751Z,68.73
2023-01-29T17:03:28.502Z,68.80
2023-01-29T17:06:00.463Z,69.23
2023-01-29T17:08:34.435Z,68.11
2023-01-29T17:11:02.392Z,68.55
2023-01-29T17:13:28.840Z,69.61
2023-01-29T17:16:05.308Z,68.78
2023-01-29T17:18:31.863Z,68.33
2023-01-29T17:20:58.373Z,68.58
2023-01-29T17:23:27.219Z,69.02
2023-01-29T17:25:53.955Z,70.00
2023-01-29T17:28:20.444Z,69.40
2023-01-29T17:31:00.091Z,69.74
2023-01-29T17:33:31.938Z,69.99
2023-01-29T17:35:58.509Z,69.88
2023-01-29T17:38:27.815Z,69.68
2023-01-29T17:41:08.249Z,69.80
2023-01-29T17:43:34.986Z,70.44
2023-01-29T17:46:01.554Z,71.97
2023-01-29T17:48:29.876Z,71.28
2023-01-29T17:51:03.354Z,70.64
2023-01-29T17:53:44.223Z,70.72
2023-01-29T17:56:16.079Z,70.97
2023-01-29T17:58:42.846Z,72.58
2023-01-29T18:01:09.410Z,72.02
2023-01-29T18:03:35.948Z,76.33
2023-01-29T18:06:02.878Z,73.18
2023-01-29T18:08:35.555Z,72.00
2023-01-29T18:11:02.111Z,72.83
2023-01-29T18:13:30.028Z,72.85
2023-01-29T18:15:57.590Z,72.46
2023-01-29T18:18:27.553Z,71.06
2023-01-29T18:21:01.353Z,70.99
2023-01-29T18:23:31.494Z,70.00
2023-01-29T18:25:58.448Z,70.54
2023-01-29T18:28:28.827Z,71.05
2023-01-29T18:30:57.480Z,71.38
2023-01-29T18:33:29.709Z,71.35
2023-01-29T18:36:05.213Z,71.54
2023-01-29T18:38:34.804Z,71.57
2023-01-29T18:41:06.708Z,71.68
2023-01-29T18:43:33.236Z,71.89
2023-01-29T18:46:02.491Z,72.18
2023-01-29T18:48:29.410Z,71.90
2023-01-29T18:50:59.982Z,71.94
2023-01-29T18:53:29.713Z,71.64
2023-01-29T18:56:04.403Z,71.70
2023-01-29T18:58:38.554Z,71.31
2023-01-29T19:01:12.108Z,71.22
2023-01-29T19:04:03.717Z,71.61
2023-01-29T19:06:32.458Z,71.52
2023-01-29T19:09:28.244Z,72.96
2023-01-29T19:12:44.959Z,73.27
2023-01-29T19:19:13.058Z,73.14
2023-01-29T19:22:19.742Z,73.40
2023-01-29T19:24:46.544Z,72.28
2023-01-29T19:27:13.440Z,73.36
2023-01-29T19:29:40.272Z,73.47
2023-01-29T19:32:08.898Z,73.71
2023-01-29T19:34:35.312Z,74.24
2023-01-29T19:37:01.771Z,74.54
2023-01-29T19:39:32.410Z,74.48
2023-01-29T19:41:59.067Z,73.53
2023-01-29T19:44:28.415Z,72.91
2023-01-29T19:46:57.254Z,72.70
2023-01-29T19:49:27.757Z,72.96
2023-01-29T19:51:56.737Z,73.42
2023-01-29T19:54:23.281Z,73.58
2023-01-29T19:56:49.721Z,73.71
2023-01-29T19:59:16.207Z,74.11
2023-01-29T20:01:42.896Z,73.09
2023-01-29T20:04:09.451Z,73.10
2023-01-29T20:06:35.992Z,74.08
2023-01-29T20:09:03.065Z,74.29
2023-01-29T20:11:30.791Z,74.98
2023-01-29T20:13:57.951Z,74.69
2023-01-29T20:16:28.838Z,74.92
2023-01-29T20:19:14.387Z,75.64
2023-01-29T20:21:42.853Z,74.59
2023-01-29T20:24:13.049Z,74.56
2023-01-29T20:26:39.596Z,75.23
2023-01-29T20:29:06.575Z,76.13
2023-01-29T20:31:33.350Z,76.43
2023-01-29T20:33:59.899Z,76.45
2023-01-29T20:36:29.326Z,77.32
2023-01-29T20:38:59.558Z,78.19
2023-01-29T20:41:29.328Z,78.05
2023-01-29T20:43:58.680Z,78.35
2023-01-29T20:46:27.554Z,79.04
2023-01-29T20:48:57.692Z,79.35
2023-01-29T20:51:24.202Z,80.09
2023-01-29T20:53:50.733Z,80.37
2023-01-29T20:56:17.697Z,80.57
2023-01-29T20:58:44.936Z,81.47
2023-01-29T21:01:12.966Z,81.55
2023-01-29T21:03:40.145Z,82.47
2023-01-29T21:06:08.655Z,82.74
2023-01-29T21:08:36.274Z,82.49
2023-01-29T21:11:04.359Z,82.81
2023-01-29T21:13:30.906Z,82.36
2023-01-29T21:15:58.080Z,82.44
2023-01-29T21:18:27.512Z,82.33
2023-01-29T21:20:57.361Z,82.63
2023-01-29T21:23:24.027Z,82.96
2023-01-29T21:25:50.507Z,82.35
2023-01-29T21:28:17.397Z,82.50
2023-01-29T21:30:50.574Z,82.84
2023-01-29T21:33:17.125Z,83.20
2023-01-29T21:35:43.606Z,83.50
2023-01-29T21:38:10.087Z,83.29
2023-01-29T21:40:36.567Z,83.41
2023-01-29T21:43:11.799Z,82.61
2023-01-29T21:45:39.810Z,82.85
2023-01-29T21:48:06.636Z,83.19
2023-01-29T21:50:33.086Z,82.95
2023-01-29T21:52:59.606Z,83.01
2023-01-29T21:55:34.296Z,82.26
2023-01-29T21:58:01.201Z,82.19
2023-01-29T22:00:31.722Z,82.53
2023-01-29T22:03:01.682Z,82.44
2023-01-29T22:05:31.397Z,81.58
2023-01-29T22:08:01.161Z,82.76
2023-01-29T22:10:29.606Z,82.42
2023-01-29T22:12:56.709Z,83.00
2023-01-29T22:15:24.125Z,82.96
2023-01-29T22:17:51.330Z,81.81
2023-01-29T22:20:19.146Z,81.61
2023-01-29T22:22:46.221Z,82.17
2023-01-29T22:25:13.231Z,82.83
2023-01-29T22:27:40.273Z,81.99
2023-01-29T22:30:07.815Z,81.25
2023-01-29T22:32:34.897Z,81.23
2023-01-29T22:35:04.443Z,82.31
2023-01-29T22:37:34.210Z,81.88
2023-01-29T22:40:04.257Z,82.56
2023-01-29T22:42:35.597Z,83.11
2023-01-29T22:45:05.988Z,83.49
2023-01-29T22:47:33.919Z,83.23
2023-01-29T22:50:01.531Z,82.51
2023-01-29T22:52:28.416Z,83.85
2023-01-29T22:54:55.005Z,83.76
2023-01-29T22:57:21.525Z,85.04
2023-01-29T22:59:50.476Z,85.05
2023-01-29T23:02:17.080Z,84.42
2023-01-29T23:04:49.594Z,82.43
2023-01-29T23:07:16.499Z,83.06
2023-01-29T23:09:43.252Z,83.83
2023-01-29T23:12:09.766Z,85.10
2023-01-29T23:14:37.825Z,85.45
2023-01-29T23:17:04.521Z,84.44
2023-01-29T23:19:33.653Z,85.11
2023-01-29T23:22:00.222Z,85.25
2023-01-29T23:24:26.801Z,85.78
2023-01-29T23:27:12.028Z,85.69
2023-01-29T23:29:38.587Z,85.72
2023-01-29T23:32:05.372Z,86.17
2023-01-29T23:34:33.893Z,87.01
2023-01-29T23:37:00.332Z,87.07
2023-01-29T23:39:26.759Z,87.57
2023-01-29T23:41:53.219Z,87.17
2023-01-29T23:44:20.404Z,87.08
2023-01-29T23:46:46.904Z,87.38
2023-01-29T23:49:13.392Z,87.47
2023-01-29T23:51:39.805Z,88.29
2023-01-29T23:54:06.665Z,88.52
2023-01-29T23:56:33.101Z,88.48
2023-01-29T23:58:59.556Z,88.06
